This is the latest recevied weather packets stored in our database for station/object JQ1YUX-13. If no packets are shown the sender has not sent any weather packets the latest 1 day(s).
| Time | Temp. | Humidity | Pressure | Rain* | Wind** | Luminosity | Snow |
|---|---|---|---|---|---|---|---|
| 1778006552 | 16.67° C | 71% | 1021.6 hPa | 0 mm | 0.45 m/s, 181° | - | - |
| 1778005653 | 16.67° C | 71% | 1021.7 hPa | 0 mm | 0.45 m/s, 168° | - | - |
| 1778004751 | 16.67° C | 71% | 1021.8 hPa | 0 mm | 0.45 m/s, 180° | - | - |
| 1778003851 | 16.67° C | 71% | 1021.7 hPa | 0 mm | 0 m/s | - | - |
| 1778002952 | 16.67° C | 71% | 1021.7 hPa | 0 mm | 0 m/s | - | - |
| 1778002052 | 16.67° C | 71% | 1021.8 hPa | 0 mm | 0.45 m/s, 174° | - | - |
| 1778001153 | 16.67° C | 71% | 1021.8 hPa | 0 mm | 0.89 m/s, 221° | - | - |
| 1778000251 | 16.67° C | 71% | 1021.9 hPa | 0 mm | 0.89 m/s, 189° | - | - |
| 1777999352 | 16.67° C | 71% | 1022 hPa | 0 mm | 0.45 m/s, 178° | - | - |
| 1777998452 | 16.67° C | 71% | 1022 hPa | 0 mm | 0.45 m/s, 184° | - | - |
| 1777997553 | 16.67° C | 73% | 1022.1 hPa | 0 mm | 0.45 m/s, 193° | - | - |
| 1777996652 | 16.67° C | 75% | 1022 hPa | 0 mm | 0.45 m/s, 196° | - | - |
| 1777995751 | 16.67° C | 75% | 1022 hPa | 0 mm | 0.45 m/s, 188° | - | - |
| 1777994852 | 17.22° C | 75% | 1022.1 hPa | 0 mm | 0.89 m/s, 199° | - | - |
| 1777993951 | 17.22° C | 75% | 1022.3 hPa | 0 mm | 0 m/s | - | - |
| 1777993052 | 17.22° C | 75% | 1022.3 hPa | 0 mm | 2.24 m/s, 223° | - | - |
| 1777992152 | 17.22° C | 74% | 1022.2 hPa | 0 mm | 0.89 m/s, 197° | - | - |
| 1777991255 | 17.22° C | 74% | 1022.3 hPa | 0 mm | 0 m/s | - | - |
| 1777990352 | 17.22° C | 72% | 1022.4 hPa | 0 mm | 1.34 m/s, 200° | - | - |
| 1777989452 | 17.22° C | 71% | 1022.4 hPa | 0 mm | 1.34 m/s, 195° | - | - |
| 1777988551 | 17.22° C | 70% | 1022.4 hPa | 0 mm | 0 m/s | - | - |
| 1777987651 | 17.22° C | 69% | 1022.4 hPa | 0 mm | 0.45 m/s, 182° | - | - |
| 1777986752 | 17.22° C | 67% | 1022.4 hPa | 0 mm | 0.89 m/s, 179° | - | - |
| 1777985853 | 17.22° C | 67% | 1022.2 hPa | 0 mm | 2.24 m/s, 199° | - | - |
| 1777984951 | 17.22° C | 66% | 1022 hPa | 0 mm | 0.89 m/s, 192° | - | - |
* Rain latest hour (hover to see other rain measurements)
** Current wind speed in m/s (hover to see current wind gust speed)